Terminal Aerodrome Forecast
Issued by NWS Chicago, IL

Home | Current Version | Previous Version | Text Only | Print | Product List | Glossary On
Versions: 1 2 3 4 5 6 7 8 9 10 11 12 13 14 15 16 17 18 19 20 21 22 23 24 25 26 27 28 29 30 31 32 33 34 35 36 37 38 39 40 41 42 43 44 45 46 47 48 49
000
FTUS43 KLOT 241148 AAA
TAFRFD
TAF AMD
KRFD 241148Z 2412/2512 VRB03KT P6SM -SHRA OVC060
     FM241400 15004KT P6SM VCSH OVC035
     FM242000 12004KT 5SM -RA OVC015
     FM242300 07009KT 5SM BR VCSH OVC015
     FM250200 04012G20KT P6SM OVC020
     FM251000 03012G19KT P6SM FEW080=

USA.gov is the U.S. government's official web portal to all federal, state and local government web resources and services.